sensor_id;sensor_type;location;lat;lon;timestamp;pressure;altitude;pressure_sealevel;temperature;humidity
26719;BME280;14326;50.794;6.060;2023-03-31T00:00:51;98565.22;;;10.92;100.00
26719;BME280;14326;50.794;6.060;2023-03-31T00:03:22;98566.13;;;10.90;100.00
26719;BME280;14326;50.794;6.060;2023-03-31T00:06:18;98566.16;;;10.88;100.00
26719;BME280;14326;50.794;6.060;2023-03-31T00:08:58;98557.22;;;10.94;100.00
26719;BME280;14326;50.794;6.060;2023-03-31T00:11:30;98549.19;;;10.98;100.00
26719;BME280;14326;50.794;6.060;2023-03-31T00:14:15;98543.75;;;11.09;100.00
26719;BME280;14326;50.794;6.060;2023-03-31T00:17:05;98542.88;;;11.10;100.00
26719;BME280;14326;50.794;6.060;2023-03-31T00:19:41;98539.34;;;11.08;100.00
26719;BME280;14326;50.794;6.060;2023-03-31T00:22:12;98539.38;;;11.05;100.00
26719;BME280;14326;50.794;6.060;2023-03-31T00:24:54;98532.22;;;11.10;100.00
26719;BME280;14326;50.794;6.060;2023-03-31T00:27:48;98526.78;;;11.22;100.00
26719;BME280;14326;50.794;6.060;2023-03-31T00:30:46;98514.34;;;11.24;100.00
26719;BME280;14326;50.794;6.060;2023-03-31T00:33:30;98510.78;;;11.24;100.00
26719;BME280;14326;50.794;6.060;2023-03-31T00:36:11;98507.25;;;11.20;100.00
26719;BME280;14326;50.794;6.060;2023-03-31T00:39:04;98500.16;;;11.22;100.00
26719;BME280;14326;50.794;6.060;2023-03-31T00:41:39;98495.59;;;11.33;100.00
26719;BME280;14326;50.794;6.060;2023-03-31T00:44:12;98496.47;;;11.34;100.00
26719;BME280;14326;50.794;6.060;2023-03-31T00:47:00;98482.22;;;11.38;100.00
26719;BME280;14326;50.794;6.060;2023-03-31T00:49:58;98473.31;;;11.40;100.00
26719;BME280;14326;50.794;6.060;2023-03-31T00:52:44;98470.72;;;11.34;100.00
26719;BME280;14326;50.794;6.060;2023-03-31T00:55:14;98470.78;;;11.30;100.00
26719;BME280;14326;50.794;6.060;2023-03-31T00:58:00;98457.44;;;11.33;100.00
26719;BME280;14326;50.794;6.060;2023-03-31T01:01:00;98461.91;;;11.31;100.00
26719;BME280;14326;50.794;6.060;2023-03-31T01:03:52;98467.19;;;11.34;100.00
26719;BME280;14326;50.794;6.060;2023-03-31T01:06:34;98460.16;;;11.27;100.00
26719;BME280;14326;50.794;6.060;2023-03-31T01:09:27;98451.28;;;11.29;100.00
26719;BME280;14326;50.794;6.060;2023-03-31T01:12:19;98448.63;;;11.29;100.00
26719;BME280;14326;50.794;6.060;2023-03-31T01:15:09;98450.31;;;11.35;100.00
26719;BME280;14326;50.794;6.060;2023-03-31T01:18:01;98459.25;;;11.29;100.00
26719;BME280;14326;50.794;6.060;2023-03-31T01:20:43;98446.78;;;11.33;100.00
26719;BME280;14326;50.794;6.060;2023-03-31T01:23:46;98440.63;;;11.31;100.00
26719;BME280;14326;50.794;6.060;2023-03-31T01:26:55;98438.00;;;11.26;100.00
26719;BME280;14326;50.794;6.060;2023-03-31T01:30:02;98424.75;;;11.20;100.00
26719;BME280;14326;50.794;6.060;2023-03-31T01:33:10;98423.91;;;11.18;100.00
26719;BME280;14326;50.794;6.060;2023-03-31T01:35:59;98412.41;;;11.16;100.00
26719;BME280;14326;50.794;6.060;2023-03-31T01:41:56;98401.69;;;11.22;100.00
26719;BME280;14326;50.794;6.060;2023-03-31T01:44:42;98397.31;;;11.18;100.00
26719;BME280;14326;50.794;6.060;2023-03-31T01:47:41;98394.66;;;11.17;100.00
26719;BME280;14326;50.794;6.060;2023-03-31T01:50:29;98381.41;;;11.12;100.00
26719;BME280;14326;50.794;6.060;2023-03-31T01:53:20;98369.88;;;11.12;100.00
26719;BME280;14326;50.794;6.060;2023-03-31T01:56:16;98359.28;;;11.08;100.00
26719;BME280;14326;50.794;6.060;2023-03-31T02:02:02;98334.56;;;11.00;100.00
26719;BME280;14326;50.794;6.060;2023-03-31T02:04:49;98329.19;;;11.02;100.00
26719;BME280;14326;50.794;6.060;2023-03-31T02:07:44;98326.50;;;11.05;100.00
26719;BME280;14326;50.794;6.060;2023-03-31T02:10:48;98306.13;;;11.02;100.00
26719;BME280;14326;50.794;6.060;2023-03-31T02:13:16;98300.88;;;10.98;100.00
26719;BME280;14326;50.794;6.060;2023-03-31T02:16:15;98292.88;;;11.01;100.00
26719;BME280;14326;50.794;6.060;2023-03-31T02:18:45;98278.69;;;11.00;100.00
26719;BME280;14326;50.794;6.060;2023-03-31T02:21:15;98262.84;;;10.91;100.00
26719;BME280;14326;50.794;6.060;2023-03-31T02:23:49;98254.84;;;10.94;100.00
26719;BME280;14326;50.794;6.060;2023-03-31T02:29:43;98224.88;;;10.80;100.00
26719;BME280;14326;50.794;6.060;2023-03-31T02:32:46;98220.44;;;10.81;100.00
26719;BME280;14326;50.794;6.060;2023-03-31T02:38:20;98198.34;;;10.77;100.00
26719;BME280;14326;50.794;6.060;2023-03-31T02:40:46;98194.94;;;10.67;100.00
26719;BME280;14326;50.794;6.060;2023-03-31T02:43:15;98176.31;;;10.67;100.00
26719;BME280;14326;50.794;6.060;2023-03-31T02:45:56;98164.84;;;10.65;100.00
26719;BME280;14326;50.794;6.060;2023-03-31T02:48:45;98155.09;;;10.64;100.00
26719;BME280;14326;50.794;6.060;2023-03-31T02:55:05;98155.13;;;10.61;100.00
26719;BME280;14326;50.794;6.060;2023-03-31T03:00:56;98144.66;;;10.52;100.00
26719;BME280;14326;50.794;6.060;2023-03-31T03:03:44;98142.88;;;10.51;100.00
26719;BME280;14326;50.794;6.060;2023-03-31T03:06:38;98138.47;;;10.49;100.00
26719;BME280;14326;50.794;6.060;2023-03-31T03:09:34;98153.44;;;10.54;100.00
26719;BME280;14326;50.794;6.060;2023-03-31T03:12:14;98140.16;;;10.54;100.00
26719;BME280;14326;50.794;6.060;2023-03-31T03:15:01;98117.09;;;10.58;100.00
26719;BME280;14326;50.794;6.060;2023-03-31T03:18:03;98103.00;;;10.53;100.00
26719;BME280;14326;50.794;6.060;2023-03-31T03:20:59;98103.88;;;10.52;100.00
26719;BME280;14326;50.794;6.060;2023-03-31T03:24:05;98101.22;;;10.52;100.00
26719;BME280;14326;50.794;6.060;2023-03-31T03:26:36;98103.00;;;10.53;100.00
26719;BME280;14326;50.794;6.060;2023-03-31T03:29:07;98094.13;;;10.54;100.00
26719;BME280;14326;50.794;6.060;2023-03-31T03:31:40;98100.34;;;10.53;100.00
26719;BME280;14326;50.794;6.060;2023-03-31T03:34:31;98087.00;;;10.54;100.00
26719;BME280;14326;50.794;6.060;2023-03-31T03:37:14;98087.00;;;10.54;100.00
26719;BME280;14326;50.794;6.060;2023-03-31T03:40:01;98072.88;;;10.52;100.00
26719;BME280;14326;50.794;6.060;2023-03-31T03:42:35;98049.84;;;10.50;100.00
26719;BME280;14326;50.794;6.060;2023-03-31T03:45:17;98045.41;;;10.50;100.00
26719;BME280;14326;50.794;6.060;2023-03-31T03:47:59;98022.50;;;10.43;100.00
26719;BME280;14326;50.794;6.060;2023-03-31T03:50:37;98010.97;;;10.43;100.00
26719;BME280;14326;50.794;6.060;2023-03-31T03:53:16;98014.50;;;10.43;100.00
26719;BME280;14326;50.794;6.060;2023-03-31T03:55:51;98014.47;;;10.46;100.00
26719;BME280;14326;50.794;6.060;2023-03-31T03:58:26;97994.03;;;10.50;100.00
26719;BME280;14326;50.794;6.060;2023-03-31T04:01:19;97990.53;;;10.48;100.00
26719;BME280;14326;50.794;6.060;2023-03-31T04:04:08;97972.81;;;10.48;100.00
26719;BME280;14326;50.794;6.060;2023-03-31T04:06:53;97974.50;;;10.52;100.00
26719;BME280;14326;50.794;6.060;2023-03-31T04:09:29;97976.38;;;10.47;100.00
26719;BME280;14326;50.794;6.060;2023-03-31T04:11:55;97958.59;;;10.49;100.00
26719;BME280;14326;50.794;6.060;2023-03-31T04:14:30;97960.38;;;10.50;100.00
26719;BME280;14326;50.794;6.060;2023-03-31T04:16:59;97939.97;;;10.51;100.00
26719;BME280;14326;50.794;6.060;2023-03-31T04:19:27;97938.22;;;10.50;100.00
26719;BME280;14326;50.794;6.060;2023-03-31T04:21:54;97937.31;;;10.51;100.00
26719;BME280;14326;50.794;6.060;2023-03-31T04:24:29;97937.28;;;10.54;100.00
26719;BME280;14326;50.794;6.060;2023-03-31T04:26:58;97926.47;;;10.61;100.00
26719;BME280;14326;50.794;6.060;2023-03-31T04:35:27;97919.38;;;10.63;100.00
26719;BME280;14326;50.794;6.060;2023-03-31T04:38:12;97909.53;;;10.68;100.00
26719;BME280;14326;50.794;6.060;2023-03-31T04:40:44;97905.09;;;10.69;100.00
26719;BME280;14326;50.794;6.060;2023-03-31T04:43:14;97900.66;;;10.68;100.00
26719;BME280;14326;50.794;6.060;2023-03-31T04:45:46;97902.19;;;10.81;100.00
26719;BME280;14326;50.794;6.060;2023-03-31T04:48:27;97887.91;;;10.85;100.00
26719;BME280;14326;50.794;6.060;2023-03-31T04:50:58;97888.00;;;10.82;100.00
26719;BME280;14326;50.794;6.060;2023-03-31T04:53:25;97892.41;;;10.83;100.00
26719;BME280;14326;50.794;6.060;2023-03-31T04:55:53;97882.72;;;10.79;100.00
26719;BME280;14326;50.794;6.060;2023-03-31T04:58:35;97881.97;;;10.73;100.00
26719;BME280;14326;50.794;6.060;2023-03-31T05:01:04;97884.72;;;10.66;100.00
26719;BME280;14326;50.794;6.060;2023-03-31T05:03:31;97868.91;;;10.60;100.00
26719;BME280;14326;50.794;6.060;2023-03-31T05:06:22;97852.13;;;10.58;100.00
26719;BME280;14326;50.794;6.060;2023-03-31T05:08:55;97866.34;;;10.54;100.00
26719;BME280;14326;50.794;6.060;2023-03-31T05:11:45;97854.03;;;10.50;100.00
26719;BME280;14326;50.794;6.060;2023-03-31T05:14:16;97859.44;;;10.46;100.00
26719;BME280;14326;50.794;6.060;2023-03-31T05:16:45;97863.78;;;10.50;100.00
26719;BME280;14326;50.794;6.060;2023-03-31T05:19:26;97876.16;;;10.52;100.00
26719;BME280;14326;50.794;6.060;2023-03-31T05:21:52;97851.41;;;10.49;100.00
26719;BME280;14326;50.794;6.060;2023-03-31T05:24:36;97847.06;;;10.45;100.00
26719;BME280;14326;50.794;6.060;2023-03-31T05:27:31;97849.78;;;10.42;100.00
26719;BME280;14326;50.794;6.060;2023-03-31T05:30:14;97826.78;;;10.39;100.00
26719;BME280;14326;50.794;6.060;2023-03-31T05:33:04;97834.84;;;10.36;100.00
26719;BME280;14326;50.794;6.060;2023-03-31T05:35:36;97830.44;;;10.35;100.00
26719;BME280;14326;50.794;6.060;2023-03-31T05:38:16;97834.09;;;10.28;100.00
26719;BME280;14326;50.794;6.060;2023-03-31T05:40:53;97814.63;;;10.26;100.00
26719;BME280;14326;50.794;6.060;2023-03-31T05:43:39;97828.00;;;10.21;100.00
26719;BME280;14326;50.794;6.060;2023-03-31T05:46:07;97812.09;;;10.20;100.00
26719;BME280;14326;50.794;6.060;2023-03-31T05:48:38;97797.81;;;10.25;100.00
26719;BME280;14326;50.794;6.060;2023-03-31T05:51:06;97791.56;;;10.30;100.00
26719;BME280;14326;50.794;6.060;2023-03-31T05:53:33;97792.31;;;10.36;100.00
26719;BME280;14326;50.794;6.060;2023-03-31T05:56:01;97796.69;;;10.37;100.00
26719;BME280;14326;50.794;6.060;2023-03-31T05:58:29;97794.03;;;10.37;100.00
26719;BME280;14326;50.794;6.060;2023-03-31T06:01:22;97801.06;;;10.41;100.00
26719;BME280;14326;50.794;6.060;2023-03-31T06:04:19;97790.38;;;10.44;100.00
26719;BME280;14326;50.794;6.060;2023-03-31T06:07:12;97783.94;;;10.54;100.00
26719;BME280;14326;50.794;6.060;2023-03-31T06:09:49;97788.38;;;10.55;100.00
26719;BME280;14326;50.794;6.060;2023-03-31T06:12:16;97790.03;;;10.61;100.00
26719;BME280;14326;50.794;6.060;2023-03-31T06:14:45;97776.66;;;10.65;100.00
26719;BME280;14326;50.794;6.060;2023-03-31T06:17:19;97768.56;;;10.72;100.00
26719;BME280;14326;50.794;6.060;2023-03-31T06:19:46;97774.69;;;10.74;100.00
26719;BME280;14326;50.794;6.060;2023-03-31T06:22:12;97772.78;;;10.80;100.00
26719;BME280;14326;50.794;6.060;2023-03-31T06:24:39;97756.66;;;10.89;100.00
26719;BME280;14326;50.794;6.060;2023-03-31T06:27:06;97757.31;;;10.99;100.00
26719;BME280;14326;50.794;6.060;2023-03-31T06:29:32;97750.19;;;11.01;100.00
26719;BME280;14326;50.794;6.060;2023-03-31T06:31:59;97763.41;;;11.02;100.00
26719;BME280;14326;50.794;6.060;2023-03-31T06:34:27;97750.88;;;11.07;100.00
26719;BME280;14326;50.794;6.060;2023-03-31T06:36:55;97763.09;;;11.18;100.00
26719;BME280;14326;50.794;6.060;2023-03-31T06:39:22;97762.94;;;11.24;100.00
26719;BME280;14326;50.794;6.060;2023-03-31T06:41:48;97758.34;;;11.30;100.00
26719;BME280;14326;50.794;6.060;2023-03-31T06:44:17;97754.97;;;11.59;99.81
26719;BME280;14326;50.794;6.060;2023-03-31T06:46:52;97744.34;;;11.95;97.84
26719;BME280;14326;50.794;6.060;2023-03-31T06:49:19;97735.44;;;12.26;96.08
26719;BME280;14326;50.794;6.060;2023-03-31T06:51:51;97734.63;;;12.55;94.45
26719;BME280;14326;50.794;6.060;2023-03-31T06:54:18;97729.53;;;13.06;93.02
26719;BME280;14326;50.794;6.060;2023-03-31T06:56:47;97728.50;;;13.38;89.54
26719;BME280;14326;50.794;6.060;2023-03-31T06:59:24;97733.72;;;13.69;87.60
26719;BME280;14326;50.794;6.060;2023-03-31T07:01:56;97734.84;;;13.88;87.31
26719;BME280;14326;50.794;6.060;2023-03-31T07:04:31;97741.00;;;13.90;86.25
26719;BME280;14326;50.794;6.060;2023-03-31T07:06:59;97733.47;;;13.77;85.33
26719;BME280;14326;50.794;6.060;2023-03-31T07:09:31;97744.94;;;13.54;85.76
26719;BME280;14326;50.794;6.060;2023-03-31T07:12:00;97735.03;;;13.30;88.58
26719;BME280;14326;50.794;6.060;2023-03-31T07:14:31;97732.91;;;13.11;89.24
26719;BME280;14326;50.794;6.060;2023-03-31T07:17:01;97734.91;;;13.05;89.04
26719;BME280;14326;50.794;6.060;2023-03-31T07:19:32;97736.03;;;12.96;90.87
26719;BME280;14326;50.794;6.060;2023-03-31T07:22:22;97731.00;;;12.87;91.46
26719;BME280;14326;50.794;6.060;2023-03-31T07:24:56;97717.84;;;12.81;91.15
26719;BME280;14326;50.794;6.060;2023-03-31T07:27:28;97720.81;;;12.72;91.64
26719;BME280;14326;50.794;6.060;2023-03-31T07:29:55;97723.72;;;12.63;91.98
26719;BME280;14326;50.794;6.060;2023-03-31T07:32:34;97718.53;;;12.58;92.19
26719;BME280;14326;50.794;6.060;2023-03-31T07:35:04;97716.94;;;12.53;92.76
26719;BME280;14326;50.794;6.060;2023-03-31T07:37:35;97726.56;;;12.57;93.51
26719;BME280;14326;50.794;6.060;2023-03-31T07:40:01;97716.72;;;12.60;93.28
26719;BME280;14326;50.794;6.060;2023-03-31T07:42:44;97725.56;;;12.61;92.75
26719;BME280;14326;50.794;6.060;2023-03-31T07:45:14;97716.59;;;12.63;93.89
26719;BME280;14326;50.794;6.060;2023-03-31T07:47:46;97715.00;;;12.58;93.09
26719;BME280;14326;50.794;6.060;2023-03-31T07:50:14;97715.50;;;12.70;93.70
26719;BME280;14326;50.794;6.060;2023-03-31T07:52:46;97731.47;;;13.01;92.05
26719;BME280;14326;50.794;6.060;2023-03-31T07:55:40;97709.22;;;13.30;90.99
26719;BME280;14326;50.794;6.060;2023-03-31T07:58:23;97710.19;;;13.80;88.52
26719;BME280;14326;50.794;6.060;2023-03-31T08:00:51;97697.81;;;14.03;85.90
26719;BME280;14326;50.794;6.060;2023-03-31T08:03:18;97714.50;;;14.34;84.69
26719;BME280;14326;50.794;6.060;2023-03-31T08:05:45;97705.09;;;14.49;83.10
26719;BME280;14326;50.794;6.060;2023-03-31T08:08:13;97697.44;;;14.85;81.97
26719;BME280;14326;50.794;6.060;2023-03-31T08:10:39;97702.31;;;14.97;81.40
26719;BME280;14326;50.794;6.060;2023-03-31T08:13:06;97697.63;;;14.80;82.37
26719;BME280;14326;50.794;6.060;2023-03-31T08:15:33;97686.88;;;14.82;82.00
26719;BME280;14326;50.794;6.060;2023-03-31T08:17:59;97684.03;;;14.63;81.03
26719;BME280;14326;50.794;6.060;2023-03-31T08:20:26;97687.53;;;15.10;81.06
26719;BME280;14326;50.794;6.060;2023-03-31T08:22:53;97687.59;;;15.30;79.89
26719;BME280;14326;50.794;6.060;2023-03-31T08:25:21;97685.09;;;15.47;78.34
26719;BME280;14326;50.794;6.060;2023-03-31T08:27:48;97687.72;;;15.71;77.98
26719;BME280;14326;50.794;6.060;2023-03-31T08:30:17;97676.75;;;15.77;77.01
26719;BME280;14326;50.794;6.060;2023-03-31T08:32:45;97688.88;;;16.06;75.12
26719;BME280;14326;50.794;6.060;2023-03-31T08:35:11;97673.63;;;16.26;74.61
26719;BME280;14326;50.794;6.060;2023-03-31T08:37:39;97682.88;;;16.39;73.70
26719;BME280;14326;50.794;6.060;2023-03-31T08:40:07;97672.88;;;16.63;72.69
26719;BME280;14326;50.794;6.060;2023-03-31T08:42:44;97674.44;;;16.49;71.30
26719;BME280;14326;50.794;6.060;2023-03-31T08:45:17;97676.59;;;16.41;70.05
26719;BME280;14326;50.794;6.060;2023-03-31T08:47:47;97663.13;;;16.22;71.16
26719;BME280;14326;50.794;6.060;2023-03-31T08:50:19;97676.88;;;15.94;71.85
26719;BME280;14326;50.794;6.060;2023-03-31T08:52:48;97667.94;;;15.51;72.03
26719;BME280;14326;50.794;6.060;2023-03-31T08:55:19;97672.06;;;15.38;74.31
26719;BME280;14326;50.794;6.060;2023-03-31T08:57:54;97669.47;;;15.15;74.79
26719;BME280;14326;50.794;6.060;2023-03-31T09:00:23;97671.25;;;14.71;76.61
26719;BME280;14326;50.794;6.060;2023-03-31T09:02:55;97665.59;;;14.55;76.94
26719;BME280;14326;50.794;6.060;2023-03-31T09:05:45;97660.00;;;14.38;78.60
26719;BME280;14326;50.794;6.060;2023-03-31T09:08:26;97660.97;;;14.35;78.67
26719;BME280;14326;50.794;6.060;2023-03-31T09:11:03;97669.03;;;14.34;77.97
26719;BME280;14326;50.794;6.060;2023-03-31T09:14:03;97679.88;;;14.31;77.19
26719;BME280;14326;50.794;6.060;2023-03-31T09:16:34;97664.16;;;14.47;76.62
26719;BME280;14326;50.794;6.060;2023-03-31T09:19:11;97659.91;;;14.64;76.93
26719;BME280;14326;50.794;6.060;2023-03-31T09:21:41;97661.03;;;14.81;76.37
26719;BME280;14326;50.794;6.060;2023-03-31T09:24:13;97663.88;;;14.99;76.33
26719;BME280;14326;50.794;6.060;2023-03-31T09:26:49;97653.81;;;15.26;72.68
26719;BME280;14326;50.794;6.060;2023-03-31T09:29:45;97654.34;;;15.57;71.76
26719;BME280;14326;50.794;6.060;2023-03-31T09:32:24;97641.97;;;15.95;71.00
26719;BME280;14326;50.794;6.060;2023-03-31T09:34:58;97638.09;;;16.21;67.56
26719;BME280;14326;50.794;6.060;2023-03-31T09:40:15;97629.66;;;16.10;67.81
26719;BME280;14326;50.794;6.060;2023-03-31T09:42:43;97640.41;;;16.10;68.80
26719;BME280;14326;50.794;6.060;2023-03-31T09:45:16;97635.34;;;16.23;68.12
26719;BME280;14326;50.794;6.060;2023-03-31T09:47:45;97628.47;;;16.17;67.47
26719;BME280;14326;50.794;6.060;2023-03-31T09:50:14;97628.34;;;16.00;68.19
26719;BME280;14326;50.794;6.060;2023-03-31T09:52:43;97627.16;;;15.67;69.76
26719;BME280;14326;50.794;6.060;2023-03-31T09:55:31;97634.31;;;15.44;70.31
26719;BME280;14326;50.794;6.060;2023-03-31T09:58:05;97633.59;;;15.19;70.67
26719;BME280;14326;50.794;6.060;2023-03-31T10:00:41;97633.97;;;14.88;70.31
26719;BME280;14326;50.794;6.060;2023-03-31T10:03:11;97621.03;;;14.78;71.97
26719;BME280;14326;50.794;6.060;2023-03-31T10:05:38;97642.09;;;14.63;71.70
26719;BME280;14326;50.794;6.060;2023-03-31T10:08:21;97621.75;;;14.59;72.94
26719;BME280;14326;50.794;6.060;2023-03-31T10:10:50;97631.75;;;14.54;73.49
26719;BME280;14326;50.794;6.060;2023-03-31T10:16:30;97644.28;;;14.29;75.53
26719;BME280;14326;50.794;6.060;2023-03-31T10:19:12;97675.84;;;14.19;79.15
26719;BME280;14326;50.794;6.060;2023-03-31T10:21:57;97691.94;;;13.67;81.73
26719;BME280;14326;50.794;6.060;2023-03-31T10:24:24;97678.34;;;13.22;86.10
26719;BME280;14326;50.794;6.060;2023-03-31T10:26:59;97679.28;;;12.91;89.60
26719;BME280;14326;50.794;6.060;2023-03-31T10:29:31;97667.81;;;12.89;92.59
26719;BME280;14326;50.794;6.060;2023-03-31T10:32:27;97660.88;;;12.84;92.06
26719;BME280;14326;50.794;6.060;2023-03-31T10:35:04;97648.19;;;12.90;91.22
26719;BME280;14326;50.794;6.060;2023-03-31T10:37:31;97634.03;;;12.88;87.94
26719;BME280;14326;50.794;6.060;2023-03-31T10:40:12;97618.53;;;12.99;87.67
26719;BME280;14326;50.794;6.060;2023-03-31T10:42:39;97621.84;;;13.07;87.61
26719;BME280;14326;50.794;6.060;2023-03-31T10:45:23;97623.13;;;13.24;86.30
26719;BME280;14326;50.794;6.060;2023-03-31T10:48:17;97623.38;;;13.42;83.23
26719;BME280;14326;50.794;6.060;2023-03-31T10:50:51;97609.63;;;13.53;84.87
26719;BME280;14326;50.794;6.060;2023-03-31T10:53:25;97608.28;;;13.66;82.59
26719;BME280;14326;50.794;6.060;2023-03-31T10:56:00;97593.41;;;13.84;84.10
26719;BME280;14326;50.794;6.060;2023-03-31T10:58:39;97593.69;;;14.00;83.70
26719;BME280;14326;50.794;6.060;2023-03-31T11:01:17;97596.84;;;14.11;83.96
26719;BME280;14326;50.794;6.060;2023-03-31T11:04:10;97593.19;;;14.13;82.37
26719;BME280;14326;50.794;6.060;2023-03-31T11:07:06;97580.63;;;14.15;83.77
26719;BME280;14326;50.794;6.060;2023-03-31T11:09:48;97582.19;;;14.21;84.65
26719;BME280;14326;50.794;6.060;2023-03-31T11:12:42;97574.06;;;14.24;84.34
26719;BME280;14326;50.794;6.060;2023-03-31T11:15:21;97571.38;;;14.24;84.73
26719;BME280;14326;50.794;6.060;2023-03-31T11:18:34;97576.09;;;14.17;81.92
26719;BME280;14326;50.794;6.060;2023-03-31T11:21:33;97585.16;;;14.13;84.01
26719;BME280;14326;50.794;6.060;2023-03-31T11:24:38;97593.28;;;14.10;85.15
26719;BME280;14326;50.794;6.060;2023-03-31T11:27:36;97581.50;;;14.16;85.97
26719;BME280;14326;50.794;6.060;2023-03-31T11:30:22;97574.78;;;14.27;84.50
26719;BME280;14326;50.794;6.060;2023-03-31T11:33:02;97564.78;;;14.32;81.58
26719;BME280;14326;50.794;6.060;2023-03-31T11:35:57;97579.69;;;14.16;83.61
26719;BME280;14326;50.794;6.060;2023-03-31T11:41:38;97575.00;;;13.75;87.74
26719;BME280;14326;50.794;6.060;2023-03-31T11:44:10;97584.06;;;13.46;88.98
26719;BME280;14326;50.794;6.060;2023-03-31T11:46:38;97571.47;;;13.49;92.35
26719;BME280;14326;50.794;6.060;2023-03-31T11:49:14;97564.94;;;13.58;89.91
26719;BME280;14326;50.794;6.060;2023-03-31T11:51:51;97565.88;;;13.80;90.12
26719;BME280;14326;50.794;6.060;2023-03-31T11:54:26;97563.38;;;14.01;89.27
26719;BME280;14326;50.794;6.060;2023-03-31T11:57:01;97577.88;;;14.17;85.99
26719;BME280;14326;50.794;6.060;2023-03-31T11:59:32;97575.97;;;14.20;86.19
26719;BME280;14326;50.794;6.060;2023-03-31T12:02:13;97565.03;;;14.26;84.06
26719;BME280;14326;50.794;6.060;2023-03-31T12:04:44;97584.94;;;14.19;84.19
26719;BME280;14326;50.794;6.060;2023-03-31T12:07:23;97569.59;;;14.24;83.20
26719;BME280;14326;50.794;6.060;2023-03-31T12:10:01;97575.31;;;14.14;80.75
26719;BME280;14326;50.794;6.060;2023-03-31T12:12:47;97580.66;;;14.14;83.42
26719;BME280;14326;50.794;6.060;2023-03-31T12:15:50;97575.63;;;14.06;83.17
26719;BME280;14326;50.794;6.060;2023-03-31T12:18:20;97585.53;;;14.03;87.35
26719;BME280;14326;50.794;6.060;2023-03-31T12:21:18;97578.97;;;13.88;89.50
26719;BME280;14326;50.794;6.060;2023-03-31T12:24:22;97565.84;;;13.82;89.81
26719;BME280;14326;50.794;6.060;2023-03-31T12:27:09;97568.78;;;13.74;89.50
26719;BME280;14326;50.794;6.060;2023-03-31T12:29:45;97563.84;;;13.64;88.86
26719;BME280;14326;50.794;6.060;2023-03-31T12:32:20;97550.78;;;13.79;91.62
26719;BME280;14326;50.794;6.060;2023-03-31T12:34:53;97555.84;;;13.87;88.97
26719;BME280;14326;50.794;6.060;2023-03-31T12:40:24;97527.50;;;14.29;87.05
26719;BME280;14326;50.794;6.060;2023-03-31T12:43:23;97536.63;;;14.47;83.24
26719;BME280;14326;50.794;6.060;2023-03-31T12:46:03;97520.94;;;14.60;81.99
26719;BME280;14326;50.794;6.060;2023-03-31T12:48:44;97512.97;;;14.80;80.94
26719;BME280;14326;50.794;6.060;2023-03-31T12:51:37;97519.81;;;14.87;80.51
26719;BME280;14326;50.794;6.060;2023-03-31T12:54:25;97518.25;;;14.82;79.72
26719;BME280;14326;50.794;6.060;2023-03-31T12:57:12;97537.88;;;14.60;80.10
26719;BME280;14326;50.794;6.060;2023-03-31T12:59:41;97520.91;;;14.38;82.97
26719;BME280;14326;50.794;6.060;2023-03-31T13:02:25;97511.31;;;14.32;86.79
26719;BME280;14326;50.794;6.060;2023-03-31T13:04:52;97526.47;;;14.32;85.87
26719;BME280;14326;50.794;6.060;2023-03-31T13:07:37;97519.22;;;14.37;84.62
26719;BME280;14326;50.794;6.060;2023-03-31T13:10:26;97522.13;;;14.29;77.12
26719;BME280;14326;50.794;6.060;2023-03-31T13:13:00;97509.75;;;14.27;79.96
26719;BME280;14326;50.794;6.060;2023-03-31T13:15:29;97495.97;;;14.14;78.66
26719;BME280;14326;50.794;6.060;2023-03-31T13:17:59;97500.09;;;14.01;78.03
26719;BME280;14326;50.794;6.060;2023-03-31T13:20:34;97503.75;;;13.99;78.79
26719;BME280;14326;50.794;6.060;2023-03-31T13:23:05;97493.22;;;13.94;78.59
26719;BME280;14326;50.794;6.060;2023-03-31T13:25:50;97500.09;;;14.01;78.38
26719;BME280;14326;50.794;6.060;2023-03-31T13:28:24;97498.75;;;14.13;78.99
26719;BME280;14326;50.794;6.060;2023-03-31T13:30:54;97497.63;;;14.18;77.22
26719;BME280;14326;50.794;6.060;2023-03-31T13:33:45;97496.63;;;14.21;77.22
26719;BME280;14326;50.794;6.060;2023-03-31T13:36:35;97497.19;;;14.29;77.91
26719;BME280;14326;50.794;6.060;2023-03-31T13:39:35;97486.16;;;14.38;78.57
26719;BME280;14326;50.794;6.060;2023-03-31T13:42:21;97486.59;;;14.49;77.48
26719;BME280;14326;50.794;6.060;2023-03-31T13:45:06;97473.72;;;14.59;76.67
26719;BME280;14326;50.794;6.060;2023-03-31T13:47:59;97467.75;;;14.52;74.84
26719;BME280;14326;50.794;6.060;2023-03-31T13:50:36;97451.13;;;14.44;73.74
26719;BME280;14326;50.794;6.060;2023-03-31T13:53:28;97457.50;;;14.42;74.23
26719;BME280;14326;50.794;6.060;2023-03-31T13:56:11;97468.06;;;14.45;74.04
26719;BME280;14326;50.794;6.060;2023-03-31T13:59:07;97460.09;;;14.43;73.20
26719;BME280;14326;50.794;6.060;2023-03-31T14:01:53;97463.13;;;14.34;73.32
26719;BME280;14326;50.794;6.060;2023-03-31T14:07:37;97442.31;;;14.42;73.40
26719;BME280;14326;50.794;6.060;2023-03-31T14:10:21;97418.94;;;14.47;73.84
26719;BME280;14326;50.794;6.060;2023-03-31T14:13:08;97448.78;;;14.58;73.93
26719;BME280;14326;50.794;6.060;2023-03-31T14:15:49;97430.59;;;14.66;73.63
26719;BME280;14326;50.794;6.060;2023-03-31T14:18:22;97436.44;;;14.76;72.57
26719;BME280;14326;50.794;6.060;2023-03-31T14:21:06;97442.50;;;14.59;70.47
26719;BME280;14326;50.794;6.060;2023-03-31T14:24:00;97442.88;;;14.50;72.98
26719;BME280;14326;50.794;6.060;2023-03-31T14:26:51;97438.22;;;14.32;74.19
26719;BME280;14326;50.794;6.060;2023-03-31T14:29:28;97443.72;;;14.07;75.67
26719;BME280;14326;50.794;6.060;2023-03-31T14:32:06;97480.75;;;13.94;78.12
26719;BME280;14326;50.794;6.060;2023-03-31T14:34:52;97463.84;;;13.71;81.20
26719;BME280;14326;50.794;6.060;2023-03-31T14:37:45;97466.97;;;13.59;83.05